sensor_id;sensor_type;location;lat;lon;timestamp;P1;durP1;ratioP1;P2;durP2;ratioP2
22097;SDS011;11215;51.938;8.464;2023-09-19T00:00:05;2.33;;;1.83;;
22097;SDS011;11215;51.938;8.464;2023-09-19T00:02:32;2.37;;;1.63;;
22097;SDS011;11215;51.938;8.464;2023-09-19T00:04:58;4.20;;;1.70;;
22097;SDS011;11215;51.938;8.464;2023-09-19T00:07:24;2.27;;;1.93;;
22097;SDS011;11215;51.938;8.464;2023-09-19T00:09:49;3.97;;;1.80;;
22097;SDS011;11215;51.938;8.464;2023-09-19T00:12:15;2.53;;;1.57;;
22097;SDS011;11215;51.938;8.464;2023-09-19T00:14:40;4.03;;;1.90;;
22097;SDS011;11215;51.938;8.464;2023-09-19T00:17:06;4.30;;;1.80;;
22097;SDS011;11215;51.938;8.464;2023-09-19T00:19:32;2.00;;;1.67;;
22097;SDS011;11215;51.938;8.464;2023-09-19T00:21:58;2.87;;;1.57;;
22097;SDS011;11215;51.938;8.464;2023-09-19T00:24:23;3.77;;;1.80;;
22097;SDS011;11215;51.938;8.464;2023-09-19T00:26:49;4.67;;;1.80;;
22097;SDS011;11215;51.938;8.464;2023-09-19T00:29:15;4.50;;;2.13;;
22097;SDS011;11215;51.938;8.464;2023-09-19T00:31:44;5.23;;;2.20;;
22097;SDS011;11215;51.938;8.464;2023-09-19T00:34:10;2.70;;;1.60;;
22097;SDS011;11215;51.938;8.464;2023-09-19T00:36:38;2.60;;;1.83;;
22097;SDS011;11215;51.938;8.464;2023-09-19T00:39:05;4.30;;;2.27;;
22097;SDS011;11215;51.938;8.464;2023-09-19T00:41:34;4.13;;;2.00;;
22097;SDS011;11215;51.938;8.464;2023-09-19T00:44:03;5.33;;;2.17;;
22097;SDS011;11215;51.938;8.464;2023-09-19T00:46:30;2.77;;;2.03;;
22097;SDS011;11215;51.938;8.464;2023-09-19T00:48:57;4.57;;;2.27;;
22097;SDS011;11215;51.938;8.464;2023-09-19T00:51:24;4.17;;;2.47;;
22097;SDS011;11215;51.938;8.464;2023-09-19T00:53:51;5.07;;;2.67;;
22097;SDS011;11215;51.938;8.464;2023-09-19T00:56:17;5.50;;;2.13;;
22097;SDS011;11215;51.938;8.464;2023-09-19T00:58:44;4.97;;;2.83;;
22097;SDS011;11215;51.938;8.464;2023-09-19T01:01:11;4.10;;;2.97;;
22097;SDS011;11215;51.938;8.464;2023-09-19T01:03:43;4.83;;;2.93;;
22097;SDS011;11215;51.938;8.464;2023-09-19T01:06:09;2.90;;;2.47;;
22097;SDS011;11215;51.938;8.464;2023-09-19T01:08:35;4.53;;;2.63;;
22097;SDS011;11215;51.938;8.464;2023-09-19T01:11:27;8.93;;;3.40;;
22097;SDS011;11215;51.938;8.464;2023-09-19T01:16:49;4.20;;;3.23;;
22097;SDS011;11215;51.938;8.464;2023-09-19T01:19:47;6.37;;;3.23;;
22097;SDS011;11215;51.938;8.464;2023-09-19T01:30:24;5.73;;;4.23;;
22097;SDS011;11215;51.938;8.464;2023-09-19T01:32:57;7.40;;;3.90;;
22097;SDS011;11215;51.938;8.464;2023-09-19T01:35:24;8.23;;;3.90;;
22097;SDS011;11215;51.938;8.464;2023-09-19T01:37:51;6.17;;;4.03;;
22097;SDS011;11215;51.938;8.464;2023-09-19T01:40:18;7.20;;;3.90;;
22097;SDS011;11215;51.938;8.464;2023-09-19T01:50:49;5.77;;;4.40;;
22097;SDS011;11215;51.938;8.464;2023-09-19T01:53:26;6.03;;;4.00;;
22097;SDS011;11215;51.938;8.464;2023-09-19T01:55:58;6.27;;;4.77;;
22097;SDS011;11215;51.938;8.464;2023-09-19T02:00:52;5.47;;;4.03;;
22097;SDS011;11215;51.938;8.464;2023-09-19T02:03:20;8.20;;;4.57;;
22097;SDS011;11215;51.938;8.464;2023-09-19T02:05:50;5.87;;;3.93;;
22097;SDS011;11215;51.938;8.464;2023-09-19T02:08:19;7.53;;;4.37;;
22097;SDS011;11215;51.938;8.464;2023-09-19T02:10:48;6.43;;;4.13;;
22097;SDS011;11215;51.938;8.464;2023-09-19T02:13:17;8.07;;;3.73;;
22097;SDS011;11215;51.938;8.464;2023-09-19T02:15:44;6.37;;;3.50;;
22097;SDS011;11215;51.938;8.464;2023-09-19T02:18:10;7.80;;;3.90;;
22097;SDS011;11215;51.938;8.464;2023-09-19T02:20:43;5.60;;;3.67;;
22097;SDS011;11215;51.938;8.464;2023-09-19T02:23:09;6.87;;;3.70;;
22097;SDS011;11215;51.938;8.464;2023-09-19T02:25:35;5.17;;;2.90;;
22097;SDS011;11215;51.938;8.464;2023-09-19T02:28:03;5.60;;;2.60;;
22097;SDS011;11215;51.938;8.464;2023-09-19T02:30:29;7.87;;;2.87;;
22097;SDS011;11215;51.938;8.464;2023-09-19T02:32:55;7.97;;;2.93;;
22097;SDS011;11215;51.938;8.464;2023-09-19T02:35:20;8.83;;;2.83;;
22097;SDS011;11215;51.938;8.464;2023-09-19T02:37:50;5.90;;;2.30;;
22097;SDS011;11215;51.938;8.464;2023-09-19T02:40:15;5.10;;;2.17;;
22097;SDS011;11215;51.938;8.464;2023-09-19T02:42:47;7.50;;;2.60;;
22097;SDS011;11215;51.938;8.464;2023-09-19T02:45:17;5.63;;;2.63;;
22097;SDS011;11215;51.938;8.464;2023-09-19T02:47:44;6.50;;;2.47;;
22097;SDS011;11215;51.938;8.464;2023-09-19T02:50:10;7.67;;;3.03;;
22097;SDS011;11215;51.938;8.464;2023-09-19T02:52:36;7.27;;;3.00;;
22097;SDS011;11215;51.938;8.464;2023-09-19T02:55:02;8.80;;;3.40;;
22097;SDS011;11215;51.938;8.464;2023-09-19T02:57:30;5.77;;;2.63;;
22097;SDS011;11215;51.938;8.464;2023-09-19T02:59:58;4.33;;;2.67;;
22097;SDS011;11215;51.938;8.464;2023-09-19T03:02:26;4.83;;;2.70;;
22097;SDS011;11215;51.938;8.464;2023-09-19T03:04:53;5.47;;;3.07;;
22097;SDS011;11215;51.938;8.464;2023-09-19T03:07:19;6.87;;;3.50;;
22097;SDS011;11215;51.938;8.464;2023-09-19T03:09:44;9.47;;;3.43;;
22097;SDS011;11215;51.938;8.464;2023-09-19T03:12:10;4.30;;;3.03;;
22097;SDS011;11215;51.938;8.464;2023-09-19T03:14:36;5.93;;;3.00;;
22097;SDS011;11215;51.938;8.464;2023-09-19T03:17:02;7.63;;;2.93;;
22097;SDS011;11215;51.938;8.464;2023-09-19T03:19:31;5.30;;;3.00;;
22097;SDS011;11215;51.938;8.464;2023-09-19T03:21:58;4.50;;;2.43;;
22097;SDS011;11215;51.938;8.464;2023-09-19T03:24:24;5.60;;;3.00;;
22097;SDS011;11215;51.938;8.464;2023-09-19T03:26:51;6.40;;;2.90;;
22097;SDS011;11215;51.938;8.464;2023-09-19T03:29:17;8.33;;;3.07;;
22097;SDS011;11215;51.938;8.464;2023-09-19T03:31:43;8.00;;;2.63;;
22097;SDS011;11215;51.938;8.464;2023-09-19T03:34:09;7.17;;;3.10;;
22097;SDS011;11215;51.938;8.464;2023-09-19T03:36:34;5.67;;;2.80;;
22097;SDS011;11215;51.938;8.464;2023-09-19T03:39:01;8.13;;;2.53;;
22097;SDS011;11215;51.938;8.464;2023-09-19T03:41:30;7.90;;;2.70;;
22097;SDS011;11215;51.938;8.464;2023-09-19T03:43:56;7.27;;;2.97;;
22097;SDS011;11215;51.938;8.464;2023-09-19T03:46:22;6.87;;;3.03;;
22097;SDS011;11215;51.938;8.464;2023-09-19T03:48:47;8.67;;;3.10;;
22097;SDS011;11215;51.938;8.464;2023-09-19T03:51:13;7.20;;;2.40;;
22097;SDS011;11215;51.938;8.464;2023-09-19T03:53:39;8.17;;;2.80;;
22097;SDS011;11215;51.938;8.464;2023-09-19T03:56:04;6.03;;;2.60;;
22097;SDS011;11215;51.938;8.464;2023-09-19T03:58:30;5.30;;;2.53;;
22097;SDS011;11215;51.938;8.464;2023-09-19T04:00:56;9.57;;;3.00;;
22097;SDS011;11215;51.938;8.464;2023-09-19T04:03:23;9.40;;;2.63;;
22097;SDS011;11215;51.938;8.464;2023-09-19T04:05:49;6.93;;;2.83;;
22097;SDS011;11215;51.938;8.464;2023-09-19T04:08:15;8.93;;;2.83;;
22097;SDS011;11215;51.938;8.464;2023-09-19T04:10:44;9.20;;;2.27;;
22097;SDS011;11215;51.938;8.464;2023-09-19T04:13:10;9.43;;;2.57;;
22097;SDS011;11215;51.938;8.464;2023-09-19T04:15:36;7.97;;;2.37;;
22097;SDS011;11215;51.938;8.464;2023-09-19T04:18:02;9.60;;;2.80;;
22097;SDS011;11215;51.938;8.464;2023-09-19T04:20:28;8.47;;;2.57;;
22097;SDS011;11215;51.938;8.464;2023-09-19T04:22:54;4.47;;;2.13;;
22097;SDS011;11215;51.938;8.464;2023-09-19T04:25:20;5.63;;;2.40;;
22097;SDS011;11215;51.938;8.464;2023-09-19T04:27:46;5.53;;;2.10;;
22097;SDS011;11215;51.938;8.464;2023-09-19T04:30:12;8.00;;;2.17;;
22097;SDS011;11215;51.938;8.464;2023-09-19T04:32:39;5.57;;;1.93;;
22097;SDS011;11215;51.938;8.464;2023-09-19T04:35:09;11.77;;;2.80;;
22097;SDS011;11215;51.938;8.464;2023-09-19T04:37:39;4.13;;;2.07;;
22097;SDS011;11215;51.938;8.464;2023-09-19T04:40:09;5.57;;;2.37;;
22097;SDS011;11215;51.938;8.464;2023-09-19T04:42:42;10.40;;;2.60;;
22097;SDS011;11215;51.938;8.464;2023-09-19T04:45:09;7.57;;;2.27;;
22097;SDS011;11215;51.938;8.464;2023-09-19T04:47:36;7.07;;;2.50;;
22097;SDS011;11215;51.938;8.464;2023-09-19T04:50:04;7.23;;;2.80;;
22097;SDS011;11215;51.938;8.464;2023-09-19T04:52:31;7.23;;;2.50;;
22097;SDS011;11215;51.938;8.464;2023-09-19T04:54:57;4.70;;;2.17;;
22097;SDS011;11215;51.938;8.464;2023-09-19T04:57:22;6.27;;;2.13;;
22097;SDS011;11215;51.938;8.464;2023-09-19T04:59:49;6.27;;;2.50;;
22097;SDS011;11215;51.938;8.464;2023-09-19T05:02:15;7.47;;;2.50;;
22097;SDS011;11215;51.938;8.464;2023-09-19T05:04:40;8.03;;;2.67;;
22097;SDS011;11215;51.938;8.464;2023-09-19T05:07:06;8.33;;;2.83;;
22097;SDS011;11215;51.938;8.464;2023-09-19T05:09:32;6.93;;;2.50;;
22097;SDS011;11215;51.938;8.464;2023-09-19T05:11:59;7.47;;;2.73;;
22097;SDS011;11215;51.938;8.464;2023-09-19T05:14:25;6.90;;;2.50;;
22097;SDS011;11215;51.938;8.464;2023-09-19T05:16:51;7.67;;;2.43;;
22097;SDS011;11215;51.938;8.464;2023-09-19T05:19:17;6.67;;;2.30;;
22097;SDS011;11215;51.938;8.464;2023-09-19T05:21:42;5.03;;;2.10;;
22097;SDS011;11215;51.938;8.464;2023-09-19T05:24:08;5.70;;;2.30;;
22097;SDS011;11215;51.938;8.464;2023-09-19T05:26:34;10.13;;;2.40;;
22097;SDS011;11215;51.938;8.464;2023-09-19T05:28:59;5.57;;;1.53;;
22097;SDS011;11215;51.938;8.464;2023-09-19T05:31:28;5.40;;;2.27;;
22097;SDS011;11215;51.938;8.464;2023-09-19T05:33:53;6.00;;;2.33;;
22097;SDS011;11215;51.938;8.464;2023-09-19T05:36:20;12.10;;;2.73;;
22097;SDS011;11215;51.938;8.464;2023-09-19T05:38:45;9.03;;;2.60;;
22097;SDS011;11215;51.938;8.464;2023-09-19T05:44:05;6.83;;;2.23;;
22097;SDS011;11215;51.938;8.464;2023-09-19T05:46:32;7.93;;;2.37;;
22097;SDS011;11215;51.938;8.464;2023-09-19T05:48:57;8.03;;;2.00;;
22097;SDS011;11215;51.938;8.464;2023-09-19T05:51:23;7.57;;;2.10;;
22097;SDS011;11215;51.938;8.464;2023-09-19T05:53:50;6.07;;;2.00;;
22097;SDS011;11215;51.938;8.464;2023-09-19T05:56:16;6.33;;;2.20;;
22097;SDS011;11215;51.938;8.464;2023-09-19T05:58:44;7.83;;;2.37;;
22097;SDS011;11215;51.938;8.464;2023-09-19T06:01:09;5.30;;;1.93;;
22097;SDS011;11215;51.938;8.464;2023-09-19T06:03:35;5.40;;;2.23;;
22097;SDS011;11215;51.938;8.464;2023-09-19T06:06:01;8.50;;;2.53;;
22097;SDS011;11215;51.938;8.464;2023-09-19T06:08:27;7.10;;;2.03;;
22097;SDS011;11215;51.938;8.464;2023-09-19T06:10:54;5.03;;;1.90;;
22097;SDS011;11215;51.938;8.464;2023-09-19T06:16:41;7.70;;;2.50;;
22097;SDS011;11215;51.938;8.464;2023-09-19T06:19:08;6.77;;;2.60;;
22097;SDS011;11215;51.938;8.464;2023-09-19T06:21:35;5.30;;;2.13;;
22097;SDS011;11215;51.938;8.464;2023-09-19T06:24:01;9.20;;;2.70;;
22097;SDS011;11215;51.938;8.464;2023-09-19T06:26:27;6.00;;;1.97;;
22097;SDS011;11215;51.938;8.464;2023-09-19T06:28:54;8.70;;;2.23;;
22097;SDS011;11215;51.938;8.464;2023-09-19T06:31:20;6.83;;;2.07;;
22097;SDS011;11215;51.938;8.464;2023-09-19T06:33:48;7.57;;;2.10;;
22097;SDS011;11215;51.938;8.464;2023-09-19T06:36:13;7.60;;;2.03;;
22097;SDS011;11215;51.938;8.464;2023-09-19T06:38:40;4.80;;;2.57;;
22097;SDS011;11215;51.938;8.464;2023-09-19T06:41:06;5.53;;;1.90;;
22097;SDS011;11215;51.938;8.464;2023-09-19T06:43:34;5.70;;;2.07;;
22097;SDS011;11215;51.938;8.464;2023-09-19T06:46:00;9.27;;;2.47;;
22097;SDS011;11215;51.938;8.464;2023-09-19T06:48:27;4.60;;;2.13;;
22097;SDS011;11215;51.938;8.464;2023-09-19T06:50:54;8.33;;;4.17;;
22097;SDS011;11215;51.938;8.464;2023-09-19T06:53:21;7.17;;;2.70;;
22097;SDS011;11215;51.938;8.464;2023-09-19T06:55:48;7.50;;;1.83;;
22097;SDS011;11215;51.938;8.464;2023-09-19T06:58:15;7.17;;;2.13;;
22097;SDS011;11215;51.938;8.464;2023-09-19T07:00:41;8.00;;;2.23;;
22097;SDS011;11215;51.938;8.464;2023-09-19T07:03:07;5.43;;;2.20;;
22097;SDS011;11215;51.938;8.464;2023-09-19T07:05:36;5.30;;;2.10;;
22097;SDS011;11215;51.938;8.464;2023-09-19T07:08:04;7.77;;;1.83;;
22097;SDS011;11215;51.938;8.464;2023-09-19T07:10:31;4.17;;;1.83;;
22097;SDS011;11215;51.938;8.464;2023-09-19T07:13:02;8.40;;;2.10;;
22097;SDS011;11215;51.938;8.464;2023-09-19T07:15:30;7.97;;;1.93;;
22097;SDS011;11215;51.938;8.464;2023-09-19T07:18:00;6.20;;;2.10;;
22097;SDS011;11215;51.938;8.464;2023-09-19T07:20:26;7.03;;;2.10;;
22097;SDS011;11215;51.938;8.464;2023-09-19T07:22:52;6.93;;;2.20;;
22097;SDS011;11215;51.938;8.464;2023-09-19T07:25:21;5.30;;;1.80;;
22097;SDS011;11215;51.938;8.464;2023-09-19T07:27:47;8.80;;;2.00;;
22097;SDS011;11215;51.938;8.464;2023-09-19T07:30:12;6.30;;;2.27;;
22097;SDS011;11215;51.938;8.464;2023-09-19T07:32:38;6.90;;;2.00;;
22097;SDS011;11215;51.938;8.464;2023-09-19T07:35:06;8.40;;;2.50;;
22097;SDS011;11215;51.938;8.464;2023-09-19T07:37:32;6.40;;;1.90;;
22097;SDS011;11215;51.938;8.464;2023-09-19T07:40:01;5.53;;;1.57;;
22097;SDS011;11215;51.938;8.464;2023-09-19T07:42:34;4.60;;;1.80;;
22097;SDS011;11215;51.938;8.464;2023-09-19T07:45:02;6.33;;;1.93;;
22097;SDS011;11215;51.938;8.464;2023-09-19T07:47:28;4.70;;;1.90;;
22097;SDS011;11215;51.938;8.464;2023-09-19T07:49:55;6.37;;;2.20;;
22097;SDS011;11215;51.938;8.464;2023-09-19T07:52:20;6.83;;;2.00;;
22097;SDS011;11215;51.938;8.464;2023-09-19T07:54:48;6.37;;;1.80;;
22097;SDS011;11215;51.938;8.464;2023-09-19T07:57:14;4.63;;;1.83;;
22097;SDS011;11215;51.938;8.464;2023-09-19T07:59:40;7.33;;;2.30;;
22097;SDS011;11215;51.938;8.464;2023-09-19T08:02:07;6.70;;;1.80;;
22097;SDS011;11215;51.938;8.464;2023-09-19T08:04:34;8.63;;;2.37;;
22097;SDS011;11215;51.938;8.464;2023-09-19T08:07:00;7.97;;;2.40;;
22097;SDS011;11215;51.938;8.464;2023-09-19T08:09:29;6.33;;;2.27;;
22097;SDS011;11215;51.938;8.464;2023-09-19T08:11:58;8.60;;;2.60;;
22097;SDS011;11215;51.938;8.464;2023-09-19T08:14:27;3.43;;;1.73;;
22097;SDS011;11215;51.938;8.464;2023-09-19T08:16:56;5.47;;;2.40;;
22097;SDS011;11215;51.938;8.464;2023-09-19T08:19:23;2.93;;;1.63;;
22097;SDS011;11215;51.938;8.464;2023-09-19T08:21:53;5.07;;;2.30;;
22097;SDS011;11215;51.938;8.464;2023-09-19T08:24:24;6.33;;;2.00;;
22097;SDS011;11215;51.938;8.464;2023-09-19T08:26:54;7.10;;;2.33;;
22097;SDS011;11215;51.938;8.464;2023-09-19T08:29:23;10.07;;;2.33;;
22097;SDS011;11215;51.938;8.464;2023-09-19T08:31:58;10.30;;;4.60;;
22097;SDS011;11215;51.938;8.464;2023-09-19T08:34:24;9.93;;;2.60;;
22097;SDS011;11215;51.938;8.464;2023-09-19T08:36:50;7.17;;;2.33;;
22097;SDS011;11215;51.938;8.464;2023-09-19T08:39:17;6.17;;;2.20;;
22097;SDS011;11215;51.938;8.464;2023-09-19T08:41:44;7.97;;;2.50;;
22097;SDS011;11215;51.938;8.464;2023-09-19T08:44:10;5.13;;;1.90;;
22097;SDS011;11215;51.938;8.464;2023-09-19T08:46:35;9.77;;;2.47;;
22097;SDS011;11215;51.938;8.464;2023-09-19T08:52:06;5.67;;;2.27;;
22097;SDS011;11215;51.938;8.464;2023-09-19T08:54:41;8.00;;;2.50;;
22097;SDS011;11215;51.938;8.464;2023-09-19T08:57:08;13.57;;;3.00;;
22097;SDS011;11215;51.938;8.464;2023-09-19T08:59:36;10.10;;;3.00;;
22097;SDS011;11215;51.938;8.464;2023-09-19T09:02:04;6.30;;;2.40;;
22097;SDS011;11215;51.938;8.464;2023-09-19T09:04:37;8.93;;;2.20;;
22097;SDS011;11215;51.938;8.464;2023-09-19T09:07:06;9.23;;;2.57;;
22097;SDS011;11215;51.938;8.464;2023-09-19T09:09:38;7.53;;;1.90;;
22097;SDS011;11215;51.938;8.464;2023-09-19T09:12:08;6.30;;;2.33;;
22097;SDS011;11215;51.938;8.464;2023-09-19T09:14:45;8.33;;;2.30;;
22097;SDS011;11215;51.938;8.464;2023-09-19T09:17:15;8.67;;;2.80;;
22097;SDS011;11215;51.938;8.464;2023-09-19T09:19:45;7.20;;;2.30;;
22097;SDS011;11215;51.938;8.464;2023-09-19T09:22:12;6.03;;;2.27;;
22097;SDS011;11215;51.938;8.464;2023-09-19T09:24:50;4.90;;;2.03;;
22097;SDS011;11215;51.938;8.464;2023-09-19T09:27:19;6.57;;;2.13;;
22097;SDS011;11215;51.938;8.464;2023-09-19T09:29:45;6.13;;;2.20;;
22097;SDS011;11215;51.938;8.464;2023-09-19T09:34:45;3.97;;;1.93;;
22097;SDS011;11215;51.938;8.464;2023-09-19T09:37:14;9.87;;;2.60;;
22097;SDS011;11215;51.938;8.464;2023-09-19T09:39:48;9.30;;;2.53;;
22097;SDS011;11215;51.938;8.464;2023-09-19T09:42:35;5.37;;;2.07;;
22097;SDS011;11215;51.938;8.464;2023-09-19T09:45:17;9.03;;;2.50;;
22097;SDS011;11215;51.938;8.464;2023-09-19T09:47:47;6.37;;;2.57;;
22097;SDS011;11215;51.938;8.464;2023-09-19T09:50:26;8.57;;;2.90;;
22097;SDS011;11215;51.938;8.464;2023-09-19T09:53:26;14.60;;;2.83;;
22097;SDS011;11215;51.938;8.464;2023-09-19T09:58:35;5.50;;;2.30;;
22097;SDS011;11215;51.938;8.464;2023-09-19T10:01:02;8.63;;;2.50;;
22097;SDS011;11215;51.938;8.464;2023-09-19T10:03:37;9.47;;;2.90;;
22097;SDS011;11215;51.938;8.464;2023-09-19T10:06:14;7.20;;;2.10;;
22097;SDS011;11215;51.938;8.464;2023-09-19T10:09:05;5.93;;;2.50;;
22097;SDS011;11215;51.938;8.464;2023-09-19T10:11:35;10.00;;;2.57;;
22097;SDS011;11215;51.938;8.464;2023-09-19T10:14:25;4.73;;;2.40;;
22097;SDS011;11215;51.938;8.464;2023-09-19T10:16:56;5.77;;;2.00;;
22097;SDS011;11215;51.938;8.464;2023-09-19T10:22:22;6.47;;;2.30;;
22097;SDS011;11215;51.938;8.464;2023-09-19T10:24:50;5.53;;;2.20;;
22097;SDS011;11215;51.938;8.464;2023-09-19T10:27:19;4.57;;;2.17;;
22097;SDS011;11215;51.938;8.464;2023-09-19T10:29:47;10.27;;;2.53;;
22097;SDS011;11215;51.938;8.464;2023-09-19T10:32:16;6.10;;;2.33;;
22097;SDS011;11215;51.938;8.464;2023-09-19T10:34:44;6.20;;;2.40;;
22097;SDS011;11215;51.938;8.464;2023-09-19T10:37:12;8.80;;;2.40;;
22097;SDS011;11215;51.938;8.464;2023-09-19T10:39:40;7.37;;;3.03;;
22097;SDS011;11215;51.938;8.464;2023-09-19T10:42:06;5.83;;;2.43;;
22097;SDS011;11215;51.938;8.464;2023-09-19T10:44:37;5.27;;;2.33;;
22097;SDS011;11215;51.938;8.464;2023-09-19T10:47:07;5.70;;;2.50;;
22097;SDS011;11215;51.938;8.464;2023-09-19T10:49:34;5.93;;;2.30;;
22097;SDS011;11215;51.938;8.464;2023-09-19T10:51:59;6.80;;;2.40;;
22097;SDS011;11215;51.938;8.464;2023-09-19T10:54:28;6.87;;;2.63;;
22097;SDS011;11215;51.938;8.464;2023-09-19T10:56:59;5.20;;;2.10;;
22097;SDS011;11215;51.938;8.464;2023-09-19T10:59:25;8.10;;;2.57;;
22097;SDS011;11215;51.938;8.464;2023-09-19T11:01:59;4.50;;;2.20;;
22097;SDS011;11215;51.938;8.464;2023-09-19T11:04:40;6.43;;;2.40;;
22097;SDS011;11215;51.938;8.464;2023-09-19T11:15:10;5.50;;;2.20;;
22097;SDS011;11215;51.938;8.464;2023-09-19T11:26:49;5.73;;;2.33;;
22097;SDS011;11215;51.938;8.464;2023-09-19T11:29:35;8.53;;;2.87;;
22097;SDS011;11215;51.938;8.464;2023-09-19T11:32:02;7.37;;;2.40;;
22097;SDS011;11215;51.938;8.464;2023-09-19T11:37:03;6.80;;;2.17;;
22097;SDS011;11215;51.938;8.464;2023-09-19T11:40:10;7.13;;;2.30;;
22097;SDS011;11215;51.938;8.464;2023-09-19T11:42:42;4.50;;;2.10;;
22097;SDS011;11215;51.938;8.464;2023-09-19T11:48:12;4.63;;;2.30;;
22097;SDS011;11215;51.938;8.464;2023-09-19T11:50:41;4.60;;;2.23;;
22097;SDS011;11215;51.938;8.464;2023-09-19T11:53:10;5.03;;;2.17;;
22097;SDS011;11215;51.938;8.464;2023-09-19T11:55:42;5.90;;;2.17;;
22097;SDS011;11215;51.938;8.464;2023-09-19T11:58:09;4.47;;;2.10;;
22097;SDS011;11215;51.938;8.464;2023-09-19T12:00:38;4.40;;;1.80;;
22097;SDS011;11215;51.938;8.464;2023-09-19T12:03:09;5.97;;;1.87;;
22097;SDS011;11215;51.938;8.464;2023-09-19T12:05:37;5.73;;;1.90;;
22097;SDS011;11215;51.938;8.464;2023-09-19T12:08:05;4.80;;;2.13;;
22097;SDS011;11215;51.938;8.464;2023-09-19T12:10:54;4.83;;;2.00;;
22097;SDS011;11215;51.938;8.464;2023-09-19T12:13:23;4.80;;;2.00;;
22097;SDS011;11215;51.938;8.464;2023-09-19T12:15:49;3.63;;;1.57;;
22097;SDS011;11215;51.938;8.464;2023-09-19T12:20:53;4.93;;;2.43;;
22097;SDS011;11215;51.938;8.464;2023-09-19T12:23:20;3.63;;;1.80;;
22097;SDS011;11215;51.938;8.464;2023-09-19T12:25:46;5.87;;;2.07;;
22097;SDS011;11215;51.938;8.464;2023-09-19T12:28:12;6.47;;;2.30;;
22097;SDS011;11215;51.938;8.464;2023-09-19T12:30:47;8.27;;;2.67;;
22097;SDS011;11215;51.938;8.464;2023-09-19T12:33:19;5.43;;;2.10;;
22097;SDS011;11215;51.938;8.464;2023-09-19T12:35:46;4.23;;;2.00;;
22097;SDS011;11215;51.938;8.464;2023-09-19T12:38:22;7.07;;;2.50;;
22097;SDS011;11215;51.938;8.464;2023-09-19T12:40:55;4.67;;;2.10;;
22097;SDS011;11215;51.938;8.464;2023-09-19T12:43:21;4.97;;;2.40;;
22097;SDS011;11215;51.938;8.464;2023-09-19T12:45:47;4.50;;;2.10;;
22097;SDS011;11215;51.938;8.464;2023-09-19T12:48:17;6.50;;;2.00;;
22097;SDS011;11215;51.938;8.464;2023-09-19T12:53:30;5.27;;;2.20;;
22097;SDS011;11215;51.938;8.464;2023-09-19T12:56:04;5.63;;;2.20;;
22097;SDS011;11215;51.938;8.464;2023-09-19T12:58:31;3.73;;;1.90;;
22097;SDS011;11215;51.938;8.464;2023-09-19T13:00:58;4.43;;;2.10;;
22097;SDS011;11215;51.938;8.464;2023-09-19T13:03:25;5.40;;;2.30;;
22097;SDS011;11215;51.938;8.464;2023-09-19T13:05:54;4.70;;;2.30;;
22097;SDS011;11215;51.938;8.464;2023-09-19T13:08:23;4.43;;;1.70;;
22097;SDS011;11215;51.938;8.464;2023-09-19T13:13:41;4.73;;;1.87;;
22097;SDS011;11215;51.938;8.464;2023-09-19T13:16:14;5.40;;;2.03;;
22097;SDS011;11215;51.938;8.464;2023-09-19T13:18:48;2.63;;;1.50;;
22097;SDS011;11215;51.938;8.464;2023-09-19T13:21:16;3.77;;;1.50;;
22097;SDS011;11215;51.938;8.464;2023-09-19T13:23:52;4.57;;;1.70;;
22097;SDS011;11215;51.938;8.464;2023-09-19T13:26:27;5.77;;;2.17;;
22097;SDS011;11215;51.938;8.464;2023-09-19T13:28:53;5.37;;;1.80;;
22097;SDS011;11215;51.938;8.464;2023-09-19T13:31:19;4.83;;;1.60;;
22097;SDS011;11215;51.938;8.464;2023-09-19T13:33:47;5.47;;;2.10;;
22097;SDS011;11215;51.938;8.464;2023-09-19T13:36:13;6.70;;;2.07;;
22097;SDS011;11215;51.938;8.464;2023-09-19T13:38:39;3.73;;;1.53;;
22097;SDS011;11215;51.938;8.464;2023-09-19T13:41:08;3.30;;;1.70;;
22097;SDS011;11215;51.938;8.464;2023-09-19T13:43:38;3.13;;;1.50;;
22097;SDS011;11215;51.938;8.464;2023-09-19T13:46:04;6.57;;;1.97;;
22097;SDS011;11215;51.938;8.464;2023-09-19T13:48:32;5.20;;;1.90;;
22097;SDS011;11215;51.938;8.464;2023-09-19T13:51:01;4.40;;;1.50;;
22097;SDS011;11215;51.938;8.464;2023-09-19T13:53:28;2.93;;;1.37;;
22097;SDS011;11215;51.938;8.464;2023-09-19T13:55:54;5.40;;;2.07;;
22097;SDS011;11215;51.938;8.464;2023-09-19T13:58:20;5.03;;;1.50;;
22097;SDS011;11215;51.938;8.464;2023-09-19T14:00:47;4.33;;;1.53;;
22097;SDS011;11215;51.938;8.464;2023-09-19T14:03:13;3.20;;;1.67;;
22097;SDS011;11215;51.938;8.464;2023-09-19T14:05:39;3.53;;;1.70;;
22097;SDS011;11215;51.938;8.464;2023-09-19T14:08:04;5.30;;;1.47;;
22097;SDS011;11215;51.938;8.464;2023-09-19T14:13:32;6.40;;;1.80;;
22097;SDS011;11215;51.938;8.464;2023-09-19T14:15:57;5.83;;;1.37;;
22097;SDS011;11215;51.938;8.464;2023-09-19T14:18:29;4.93;;;1.33;;
22097;SDS011;11215;51.938;8.464;2023-09-19T14:20:55;3.53;;;1.20;;
22097;SDS011;11215;51.938;8.464;2023-09-19T14:23:21;5.83;;;1.60;;
22097;SDS011;11215;51.938;8.464;2023-09-19T14:25:48;6.23;;;1.77;;
22097;SDS011;11215;51.938;8.464;2023-09-19T14:28:14;4.03;;;1.30;;
22097;SDS011;11215;51.938;8.464;2023-09-19T14:30:39;3.37;;;1.40;;
22097;SDS011;11215;51.938;8.464;2023-09-19T14:33:05;4.40;;;1.47;;
22097;SDS011;11215;51.938;8.464;2023-09-19T14:35:32;4.07;;;1.40;;
22097;SDS011;11215;51.938;8.464;2023-09-19T14:37:58;4.07;;;1.57;;
22097;SDS011;11215;51.938;8.464;2023-09-19T14:40:23;6.03;;;1.90;;
22097;SDS011;11215;51.938;8.464;2023-09-19T14:42:50;4.60;;;1.83;;
22097;SDS011;11215;51.938;8.464;2023-09-19T14:45:16;2.83;;;1.57;;
22097;SDS011;11215;51.938;8.464;2023-09-19T14:47:43;3.67;;;1.80;;
22097;SDS011;11215;51.938;8.464;2023-09-19T14:50:11;4.67;;;1.57;;
22097;SDS011;11215;51.938;8.464;2023-09-19T14:52:37;6.30;;;1.80;;
22097;SDS011;11215;51.938;8.464;2023-09-19T14:55:05;4.20;;;1.70;;
22097;SDS011;11215;51.938;8.464;2023-09-19T14:57:31;4.87;;;1.97;;
22097;SDS011;11215;51.938;8.464;2023-09-19T14:59:58;3.27;;;1.30;;
22097;SDS011;11215;51.938;8.464;2023-09-19T15:02:25;5.80;;;2.20;;
22097;SDS011;11215;51.938;8.464;2023-09-19T15:04:51;3.00;;;1.83;;
22097;SDS011;11215;51.938;8.464;2023-09-19T15:07:17;3.90;;;1.80;;
22097;SDS011;11215;51.938;8.464;2023-09-19T15:09:43;4.60;;;1.83;;
22097;SDS011;11215;51.938;8.464;2023-09-19T15:12:09;5.63;;;1.93;;
22097;SDS011;11215;51.938;8.464;2023-09-19T15:14:39;4.97;;;1.87;;
22097;SDS011;11215;51.938;8.464;2023-09-19T15:17:05;3.57;;;1.80;;
22097;SDS011;11215;51.938;8.464;2023-09-19T15:19:31;2.93;;;1.73;;
22097;SDS011;11215;51.938;8.464;2023-09-19T15:21:56;5.03;;;1.80;;
22097;SDS011;11215;51.938;8.464;2023-09-19T15:24:23;3.77;;;1.97;;
22097;SDS011;11215;51.938;8.464;2023-09-19T15:26:51;3.73;;;1.80;;
22097;SDS011;11215;51.938;8.464;2023-09-19T15:29:17;3.60;;;1.70;;
22097;SDS011;11215;51.938;8.464;2023-09-19T15:31:44;2.83;;;1.73;;
22097;SDS011;11215;51.938;8.464;2023-09-19T15:34:10;2.30;;;1.57;;
22097;SDS011;11215;51.938;8.464;2023-09-19T15:36:39;5.87;;;1.63;;
22097;SDS011;11215;51.938;8.464;2023-09-19T15:39:05;3.33;;;1.73;;
22097;SDS011;11215;51.938;8.464;2023-09-19T15:44:00;3.93;;;1.20;;
22097;SDS011;11215;51.938;8.464;2023-09-19T15:46:27;2.47;;;1.20;;
22097;SDS011;11215;51.938;8.464;2023-09-19T15:48:54;2.50;;;1.27;;
22097;SDS011;11215;51.938;8.464;2023-09-19T15:51:20;3.17;;;1.10;;
22097;SDS011;11215;51.938;8.464;2023-09-19T15:53:47;3.53;;;1.17;;
22097;SDS011;11215;51.938;8.464;2023-09-19T15:56:14;3.57;;;1.00;;
22097;SDS011;11215;51.938;8.464;2023-09-19T15:58:43;4.90;;;1.00;;
22097;SDS011;11215;51.938;8.464;2023-09-19T16:01:10;1.77;;;1.27;;
22097;SDS011;11215;51.938;8.464;2023-09-19T16:03:39;4.60;;;1.30;;
22097;SDS011;11215;51.938;8.464;2023-09-19T16:09:15;1.37;;;1.07;;
22097;SDS011;11215;51.938;8.464;2023-09-19T16:11:41;2.93;;;1.30;;